Belfield, North Dakota
Current Conditions -  °F | °C
As of 9:56 PM on Saturday 25 Oct 2014 (Local Time) from KDIK Reporting Station
Clear Clear  
Wind Chill: 50°   Ceiling: Unl
Heat Index: 50°   Visibility: 10mi
Dew Point: 30°   Wind: 16mph
Humidity: 46%   Direction: 140°SE
Pressure: 29.81"   Gusts: NA
Location:  46.89°N, 103.2°W
Report Text: KDIK 260356Z AUTO 14014KT 10SM CLR 10/M01 A2981 RMK AO2 SLP097 T01001011
Loading
Personal Weather Stations






























Interactive Weather Map
Tropical Storm Tracking
New forecast layout! Learn more

10-Day Weather Forecast

Advertisements
Track Severe Weather on mobile